sensor_id;sensor_type;location;lat;lon;timestamp;pressure;altitude;pressure_sealevel;temperature;humidity
55066;BME280;40964;42.114;24.220;2023-03-23T00:02:06;97823.16;;;7.62;100.00
55066;BME280;40964;42.114;24.220;2023-03-23T00:04:32;97821.38;;;7.69;100.00
55066;BME280;40964;42.114;24.220;2023-03-23T00:06:57;97809.69;;;7.72;100.00
55066;BME280;40964;42.114;24.220;2023-03-23T00:09:26;97803.47;;;7.66;100.00
55066;BME280;40964;42.114;24.220;2023-03-23T00:11:51;97805.88;;;7.68;100.00
55066;BME280;40964;42.114;24.220;2023-03-23T00:14:22;97804.69;;;7.64;100.00
55066;BME280;40964;42.114;24.220;2023-03-23T00:16:49;97809.31;;;7.68;100.00
55066;BME280;40964;42.114;24.220;2023-03-23T00:19:15;97810.88;;;7.63;100.00
55066;BME280;40964;42.114;24.220;2023-03-23T00:21:42;97798.41;;;7.58;100.00
55066;BME280;40964;42.114;24.220;2023-03-23T00:24:18;97800.41;;;7.56;100.00
55066;BME280;40964;42.114;24.220;2023-03-23T00:26:47;97796.59;;;7.59;100.00
55066;BME280;40964;42.114;24.220;2023-03-23T00:31:39;97793.75;;;7.47;100.00
55066;BME280;40964;42.114;24.220;2023-03-23T00:34:05;97801.59;;;7.47;100.00
55066;BME280;40964;42.114;24.220;2023-03-23T00:36:32;97805.22;;;7.53;100.00
55066;BME280;40964;42.114;24.220;2023-03-23T00:39:03;97800.41;;;7.50;100.00
55066;BME280;40964;42.114;24.220;2023-03-23T00:41:29;97805.66;;;7.56;100.00
55066;BME280;40964;42.114;24.220;2023-03-23T00:43:58;97794.56;;;7.48;100.00
55066;BME280;40964;42.114;24.220;2023-03-23T00:46:26;97806.72;;;7.27;100.00
55066;BME280;40964;42.114;24.220;2023-03-23T00:48:53;97801.44;;;7.14;100.00
55066;BME280;40964;42.114;24.220;2023-03-23T00:51:19;97800.66;;;7.14;100.00
55066;BME280;40964;42.114;24.220;2023-03-23T00:53:46;97806.22;;;7.04;100.00
55066;BME280;40964;42.114;24.220;2023-03-23T00:56:12;97799.16;;;6.98;100.00
55066;BME280;40964;42.114;24.220;2023-03-23T00:58:38;97789.69;;;6.97;100.00
55066;BME280;40964;42.114;24.220;2023-03-23T01:01:04;97801.00;;;7.04;100.00
55066;BME280;40964;42.114;24.220;2023-03-23T01:03:29;97800.25;;;7.10;100.00
55066;BME280;40964;42.114;24.220;2023-03-23T01:05:55;97808.28;;;7.15;100.00
55066;BME280;40964;42.114;24.220;2023-03-23T01:08:22;97804.50;;;7.24;100.00
55066;BME280;40964;42.114;24.220;2023-03-23T01:10:48;97799.13;;;7.32;100.00
55066;BME280;40964;42.114;24.220;2023-03-23T01:13:14;97785.81;;;7.27;100.00
55066;BME280;40964;42.114;24.220;2023-03-23T01:15:40;97797.72;;;7.36;100.00
55066;BME280;40964;42.114;24.220;2023-03-23T01:18:07;97776.19;;;7.34;100.00
55066;BME280;40964;42.114;24.220;2023-03-23T01:20:34;97787.06;;;7.45;100.00
55066;BME280;40964;42.114;24.220;2023-03-23T01:23:00;97787.09;;;7.51;100.00
55066;BME280;40964;42.114;24.220;2023-03-23T01:28:02;97781.28;;;7.56;100.00
55066;BME280;40964;42.114;24.220;2023-03-23T01:30:27;97776.25;;;7.61;100.00
55066;BME280;40964;42.114;24.220;2023-03-23T01:32:54;97784.53;;;7.64;100.00
55066;BME280;40964;42.114;24.220;2023-03-23T01:35:20;97778.91;;;7.67;100.00
55066;BME280;40964;42.114;24.220;2023-03-23T01:37:46;97778.91;;;7.67;100.00
55066;BME280;40964;42.114;24.220;2023-03-23T01:40:13;97772.25;;;7.65;100.00
55066;BME280;40964;42.114;24.220;2023-03-23T01:42:39;97782.72;;;7.65;100.00
55066;BME280;40964;42.114;24.220;2023-03-23T01:48:40;97780.25;;;7.50;100.00
55066;BME280;40964;42.114;24.220;2023-03-23T01:51:09;97780.03;;;7.45;100.00
55066;BME280;40964;42.114;24.220;2023-03-23T01:53:57;97778.59;;;7.36;100.00
55066;BME280;40964;42.114;24.220;2023-03-23T01:56:28;97775.38;;;7.34;100.00
55066;BME280;40964;42.114;24.220;2023-03-23T01:58:57;97791.47;;;7.31;100.00
55066;BME280;40964;42.114;24.220;2023-03-23T02:01:23;97785.81;;;7.21;100.00
55066;BME280;40964;42.114;24.220;2023-03-23T02:03:54;97793.66;;;7.27;100.00
55066;BME280;40964;42.114;24.220;2023-03-23T02:06:21;97794.25;;;7.23;100.00
55066;BME280;40964;42.114;24.220;2023-03-23T02:08:49;97797.84;;;7.15;100.00
55066;BME280;40964;42.114;24.220;2023-03-23T02:11:18;97798.22;;;7.12;100.00
55066;BME280;40964;42.114;24.220;2023-03-23T02:13:45;97785.53;;;7.09;100.00
55066;BME280;40964;42.114;24.220;2023-03-23T02:24:41;97797.94;;;6.94;100.00
55066;BME280;40964;42.114;24.220;2023-03-23T02:35:46;97802.19;;;6.67;100.00
55066;BME280;40964;42.114;24.220;2023-03-23T02:38:18;97791.09;;;6.58;100.00
55066;BME280;40964;42.114;24.220;2023-03-23T02:40:47;97786.63;;;6.52;100.00
55066;BME280;40964;42.114;24.220;2023-03-23T02:43:16;97790.22;;;6.51;100.00
55066;BME280;40964;42.114;24.220;2023-03-23T02:45:45;97798.25;;;6.49;100.00
55066;BME280;40964;42.114;24.220;2023-03-23T02:48:13;97795.78;;;6.41;100.00
55066;BME280;40964;42.114;24.220;2023-03-23T02:50:43;97805.16;;;6.29;100.00
55066;BME280;40964;42.114;24.220;2023-03-23T02:53:11;97808.31;;;6.24;100.00
55066;BME280;40964;42.114;24.220;2023-03-23T02:55:41;97811.97;;;6.30;100.00
55066;BME280;40964;42.114;24.220;2023-03-23T02:58:09;97803.59;;;6.13;100.00
55066;BME280;40964;42.114;24.220;2023-03-23T03:00:35;97811.31;;;6.21;100.00
55066;BME280;40964;42.114;24.220;2023-03-23T03:03:00;97815.34;;;6.24;100.00
55066;BME280;40964;42.114;24.220;2023-03-23T03:08:35;97825.97;;;6.22;100.00
55066;BME280;40964;42.114;24.220;2023-03-23T03:11:15;97823.63;;;6.06;100.00
55066;BME280;40964;42.114;24.220;2023-03-23T03:13:59;97811.16;;;6.08;100.00
55066;BME280;40964;42.114;24.220;2023-03-23T03:16:33;97812.78;;;6.09;100.00
55066;BME280;40964;42.114;24.220;2023-03-23T03:21:39;97812.91;;;6.01;100.00
55066;BME280;40964;42.114;24.220;2023-03-23T03:24:07;97820.31;;;5.97;100.00
55066;BME280;40964;42.114;24.220;2023-03-23T03:26:39;97822.31;;;5.95;100.00
55066;BME280;40964;42.114;24.220;2023-03-23T03:29:07;97800.81;;;5.93;100.00
55066;BME280;40964;42.114;24.220;2023-03-23T03:31:36;97806.84;;;5.94;100.00
55066;BME280;40964;42.114;24.220;2023-03-23T03:34:04;97808.16;;;5.90;100.00
55066;BME280;40964;42.114;24.220;2023-03-23T03:36:32;97803.66;;;5.84;100.00
55066;BME280;40964;42.114;24.220;2023-03-23T03:39:09;97810.41;;;5.93;100.00
55066;BME280;40964;42.114;24.220;2023-03-23T03:41:36;97817.38;;;5.86;100.00
55066;BME280;40964;42.114;24.220;2023-03-23T03:44:03;97803.78;;;5.90;100.00
55066;BME280;40964;42.114;24.220;2023-03-23T03:46:29;97814.47;;;5.95;100.00
55066;BME280;40964;42.114;24.220;2023-03-23T03:48:57;97814.72;;;6.01;100.00
55066;BME280;40964;42.114;24.220;2023-03-23T03:51:23;97809.75;;;6.06;100.00
55066;BME280;40964;42.114;24.220;2023-03-23T03:53:49;97816.53;;;6.21;100.00
55066;BME280;40964;42.114;24.220;2023-03-23T03:56:15;97815.75;;;6.28;100.00
55066;BME280;40964;42.114;24.220;2023-03-23T03:58:41;97820.97;;;6.28;100.00
55066;BME280;40964;42.114;24.220;2023-03-23T04:01:08;97811.78;;;6.32;100.00
55066;BME280;40964;42.114;24.220;2023-03-23T04:03:37;97812.47;;;6.40;100.00
55066;BME280;40964;42.114;24.220;2023-03-23T04:06:04;97808.31;;;6.52;100.00
55066;BME280;40964;42.114;24.220;2023-03-23T04:08:30;97812.41;;;6.62;100.00
55066;BME280;40964;42.114;24.220;2023-03-23T04:10:57;97817.09;;;6.73;100.00
55066;BME280;40964;42.114;24.220;2023-03-23T04:13:22;97817.34;;;6.78;100.00
55066;BME280;40964;42.114;24.220;2023-03-23T04:15:49;97821.19;;;6.82;100.00
55066;BME280;40964;42.114;24.220;2023-03-23T04:18:15;97825.22;;;6.85;100.00
55066;BME280;40964;42.114;24.220;2023-03-23T04:20:44;97823.63;;;6.90;100.00
55066;BME280;40964;42.114;24.220;2023-03-23T04:23:15;97812.00;;;6.93;100.00
55066;BME280;40964;42.114;24.220;2023-03-23T04:28:20;97824.16;;;7.07;100.00
55066;BME280;40964;42.114;24.220;2023-03-23T04:30:49;97825.56;;;7.09;100.00
55066;BME280;40964;42.114;24.220;2023-03-23T04:33:28;97824.84;;;7.22;100.00
55066;BME280;40964;42.114;24.220;2023-03-23T04:35:58;97826.28;;;7.31;100.00
55066;BME280;40964;42.114;24.220;2023-03-23T04:38:27;97825.28;;;7.32;100.00
55066;BME280;40964;42.114;24.220;2023-03-23T04:40:52;97824.50;;;7.38;100.00
55066;BME280;40964;42.114;24.220;2023-03-23T04:43:20;97826.03;;;7.26;100.00
55066;BME280;40964;42.114;24.220;2023-03-23T04:45:51;97830.25;;;7.21;100.00
55066;BME280;40964;42.114;24.220;2023-03-23T04:48:17;97834.13;;;7.31;100.00
55066;BME280;40964;42.114;24.220;2023-03-23T04:50:44;97832.25;;;7.19;100.00
55066;BME280;40964;42.114;24.220;2023-03-23T04:53:10;97834.91;;;7.25;100.00
55066;BME280;40964;42.114;24.220;2023-03-23T04:55:36;97835.97;;;7.37;100.00
55066;BME280;40964;42.114;24.220;2023-03-23T04:58:06;97833.81;;;7.48;100.00
55066;BME280;40964;42.114;24.220;2023-03-23T05:00:33;97840.84;;;7.54;100.00
55066;BME280;40964;42.114;24.220;2023-03-23T05:02:59;97833.47;;;7.64;100.00
55066;BME280;40964;42.114;24.220;2023-03-23T05:05:26;97834.91;;;7.73;100.00
55066;BME280;40964;42.114;24.220;2023-03-23T05:07:54;97833.91;;;7.74;100.00
55066;BME280;40964;42.114;24.220;2023-03-23T05:10:20;97836.13;;;7.84;100.00
55066;BME280;40964;42.114;24.220;2023-03-23T05:12:45;97843.78;;;7.85;100.00
55066;BME280;40964;42.114;24.220;2023-03-23T05:15:13;97847.06;;;8.01;100.00
55066;BME280;40964;42.114;24.220;2023-03-23T05:17:39;97847.06;;;8.14;100.00
55066;BME280;40964;42.114;24.220;2023-03-23T05:20:06;97847.09;;;8.27;100.00
55066;BME280;40964;42.114;24.220;2023-03-23T05:22:35;97847.34;;;8.45;99.95
55066;BME280;40964;42.114;24.220;2023-03-23T05:25:01;97838.06;;;8.56;99.08
55066;BME280;40964;42.114;24.220;2023-03-23T05:27:30;97845.91;;;8.82;97.88
55066;BME280;40964;42.114;24.220;2023-03-23T05:29:58;97856.78;;;8.99;97.50
55066;BME280;40964;42.114;24.220;2023-03-23T05:32:27;97861.78;;;9.21;97.53
55066;BME280;40964;42.114;24.220;2023-03-23T05:34:59;97862.19;;;9.11;96.93
55066;BME280;40964;42.114;24.220;2023-03-23T05:37:28;97860.00;;;9.01;99.29
55066;BME280;40964;42.114;24.220;2023-03-23T05:39:58;97864.88;;;8.85;100.00
55066;BME280;40964;42.114;24.220;2023-03-23T05:42:27;97868.69;;;8.75;100.00
55066;BME280;40964;42.114;24.220;2023-03-23T05:44:52;97878.78;;;8.59;100.00
55066;BME280;40964;42.114;24.220;2023-03-23T05:47:18;97878.97;;;8.50;100.00
55066;BME280;40964;42.114;24.220;2023-03-23T05:49:44;97876.78;;;8.74;100.00
55066;BME280;40964;42.114;24.220;2023-03-23T05:52:09;97876.75;;;8.94;100.00
55066;BME280;40964;42.114;24.220;2023-03-23T05:54:35;97874.09;;;9.14;100.00
55066;BME280;40964;42.114;24.220;2023-03-23T05:57:02;97867.81;;;9.28;100.00
55066;BME280;40964;42.114;24.220;2023-03-23T05:59:28;97878.69;;;9.45;100.00
55066;BME280;40964;42.114;24.220;2023-03-23T06:01:53;97876.38;;;9.61;100.00
55066;BME280;40964;42.114;24.220;2023-03-23T06:04:19;97890.72;;;9.65;100.00
55066;BME280;40964;42.114;24.220;2023-03-23T06:06:45;97878.78;;;9.70;100.00
55066;BME280;40964;42.114;24.220;2023-03-23T06:09:11;97886.25;;;9.73;98.40
55066;BME280;40964;42.114;24.220;2023-03-23T06:11:36;97878.72;;;9.83;95.63
55066;BME280;40964;42.114;24.220;2023-03-23T06:14:02;97888.22;;;9.84;93.78
55066;BME280;40964;42.114;24.220;2023-03-23T06:16:28;97895.88;;;9.85;91.96
55066;BME280;40964;42.114;24.220;2023-03-23T06:18:54;97897.84;;;9.96;88.37
55066;BME280;40964;42.114;24.220;2023-03-23T06:21:19;97898.81;;;10.09;92.14
55066;BME280;40964;42.114;24.220;2023-03-23T06:23:45;97892.13;;;10.06;91.48
55066;BME280;40964;42.114;24.220;2023-03-23T06:26:14;97900.78;;;10.13;92.00
55066;BME280;40964;42.114;24.220;2023-03-23T06:28:43;97901.59;;;10.14;91.58
55066;BME280;40964;42.114;24.220;2023-03-23T06:31:09;97905.81;;;10.21;91.75
55066;BME280;40964;42.114;24.220;2023-03-23T06:33:36;97906.47;;;10.48;92.73
55066;BME280;40964;42.114;24.220;2023-03-23T06:36:02;97907.97;;;10.69;90.47
55066;BME280;40964;42.114;24.220;2023-03-23T06:38:27;97917.66;;;10.69;88.50
55066;BME280;40964;42.114;24.220;2023-03-23T06:40:53;97915.53;;;10.84;89.66
55066;BME280;40964;42.114;24.220;2023-03-23T06:43:20;97901.88;;;10.94;86.78
55066;BME280;40964;42.114;24.220;2023-03-23T06:45:45;97910.19;;;11.16;85.67
55066;BME280;40964;42.114;24.220;2023-03-23T06:48:11;97912.34;;;11.25;86.19
55066;BME280;40964;42.114;24.220;2023-03-23T06:50:37;97911.97;;;11.40;83.65
55066;BME280;40964;42.114;24.220;2023-03-23T06:53:02;97914.03;;;11.56;84.47
55066;BME280;40964;42.114;24.220;2023-03-23T06:55:28;97924.94;;;11.60;83.94
55066;BME280;40964;42.114;24.220;2023-03-23T06:57:53;97921.88;;;11.81;85.05
55066;BME280;40964;42.114;24.220;2023-03-23T07:00:19;97923.13;;;11.97;83.20
55066;BME280;40964;42.114;24.220;2023-03-23T07:02:45;97928.44;;;12.09;80.70
55066;BME280;40964;42.114;24.220;2023-03-23T07:05:11;97923.09;;;12.15;78.12
55066;BME280;40964;42.114;24.220;2023-03-23T07:07:40;97923.59;;;12.24;77.32
55066;BME280;40964;42.114;24.220;2023-03-23T07:10:07;97927.50;;;12.33;76.77
55066;BME280;40964;42.114;24.220;2023-03-23T07:12:37;97921.59;;;12.49;75.12
55066;BME280;40964;42.114;24.220;2023-03-23T07:15:04;97914.50;;;12.50;75.04
55066;BME280;40964;42.114;24.220;2023-03-23T07:17:30;97928.03;;;12.54;75.27
55066;BME280;40964;42.114;24.220;2023-03-23T07:19:55;97926.75;;;12.44;76.08
55066;BME280;40964;42.114;24.220;2023-03-23T07:22:21;97927.69;;;12.50;74.49
55066;BME280;40964;42.114;24.220;2023-03-23T07:24:47;97924.03;;;12.63;75.67
55066;BME280;40964;42.114;24.220;2023-03-23T07:27:12;97925.16;;;12.55;72.74
55066;BME280;40964;42.114;24.220;2023-03-23T07:29:39;97924.50;;;12.60;72.36
55066;BME280;40964;42.114;24.220;2023-03-23T07:32:05;97931.22;;;12.86;71.83
55066;BME280;40964;42.114;24.220;2023-03-23T07:34:32;97926.97;;;12.96;70.51
55066;BME280;40964;42.114;24.220;2023-03-23T07:36:58;97930.03;;;12.93;71.56
55066;BME280;40964;42.114;24.220;2023-03-23T07:39:24;97928.19;;;12.82;68.84
55066;BME280;40964;42.114;24.220;2023-03-23T07:41:50;97931.66;;;12.83;69.85
55066;BME280;40964;42.114;24.220;2023-03-23T07:44:16;97931.44;;;12.96;67.87
55066;BME280;40964;42.114;24.220;2023-03-23T07:46:42;97935.69;;;13.08;68.88
55066;BME280;40964;42.114;24.220;2023-03-23T07:49:08;97930.88;;;13.17;68.48
55066;BME280;40964;42.114;24.220;2023-03-23T07:51:34;97928.47;;;13.16;70.31
55066;BME280;40964;42.114;24.220;2023-03-23T07:54:00;97935.34;;;13.17;68.62
55066;BME280;40964;42.114;24.220;2023-03-23T07:56:28;97938.25;;;13.27;69.10
55066;BME280;40964;42.114;24.220;2023-03-23T07:58:53;97932.06;;;13.33;69.88
55066;BME280;40964;42.114;24.220;2023-03-23T08:01:19;97940.47;;;13.30;69.01
55066;BME280;40964;42.114;24.220;2023-03-23T08:03:44;97930.13;;;13.40;65.26
55066;BME280;40964;42.114;24.220;2023-03-23T08:06:10;97934.91;;;13.55;66.40
55066;BME280;40964;42.114;24.220;2023-03-23T08:08:36;97929.69;;;13.83;63.90
55066;BME280;40964;42.114;24.220;2023-03-23T08:11:03;97931.47;;;14.06;62.98
55066;BME280;40964;42.114;24.220;2023-03-23T08:13:28;97898.63;;;14.02;61.70
55066;BME280;40964;42.114;24.220;2023-03-23T08:15:54;97936.47;;;14.19;60.71
55066;BME280;40964;42.114;24.220;2023-03-23T08:18:20;97929.69;;;14.24;57.80
55066;BME280;40964;42.114;24.220;2023-03-23T08:20:45;97933.69;;;14.26;57.89
55066;BME280;40964;42.114;24.220;2023-03-23T08:23:11;97932.47;;;14.45;58.15
55066;BME280;40964;42.114;24.220;2023-03-23T08:25:37;97933.41;;;14.39;56.79
55066;BME280;40964;42.114;24.220;2023-03-23T08:28:03;97935.09;;;14.57;58.60
55066;BME280;40964;42.114;24.220;2023-03-23T08:30:30;97934.53;;;14.89;59.51
55066;BME280;40964;42.114;24.220;2023-03-23T08:32:57;97933.09;;;14.98;57.35
55066;BME280;40964;42.114;24.220;2023-03-23T08:35:23;97928.06;;;15.13;58.50
55066;BME280;40964;42.114;24.220;2023-03-23T08:37:49;97932.84;;;15.16;56.38
55066;BME280;40964;42.114;24.220;2023-03-23T08:40:21;97926.44;;;15.29;58.47
55066;BME280;40964;42.114;24.220;2023-03-23T08:42:49;97927.78;;;15.31;57.96
55066;BME280;40964;42.114;24.220;2023-03-23T08:45:19;97929.66;;;15.53;52.17
55066;BME280;40964;42.114;24.220;2023-03-23T08:47:45;97921.25;;;15.56;53.95
55066;BME280;40964;42.114;24.220;2023-03-23T08:50:20;97922.69;;;15.64;54.37
55066;BME280;40964;42.114;24.220;2023-03-23T08:52:48;97926.84;;;15.76;53.79
55066;BME280;40964;42.114;24.220;2023-03-23T08:55:14;97931.59;;;15.74;52.99
55066;BME280;40964;42.114;24.220;2023-03-23T08:57:40;97930.88;;;16.06;53.00
55066;BME280;40964;42.114;24.220;2023-03-23T09:00:08;97925.41;;;16.12;51.01
55066;BME280;40964;42.114;24.220;2023-03-23T09:02:49;97921.06;;;16.06;50.80
55066;BME280;40964;42.114;24.220;2023-03-23T09:05:16;97918.00;;;16.41;51.79
55066;BME280;40964;42.114;24.220;2023-03-23T09:07:45;97931.34;;;16.25;50.54
55066;BME280;40964;42.114;24.220;2023-03-23T09:10:12;97928.72;;;16.25;50.48
55066;BME280;40964;42.114;24.220;2023-03-23T09:12:39;97923.13;;;15.99;50.52
55066;BME280;40964;42.114;24.220;2023-03-23T09:15:07;97926.44;;;16.11;48.64
55066;BME280;40964;42.114;24.220;2023-03-23T09:17:38;97932.25;;;15.86;51.62
55066;BME280;40964;42.114;24.220;2023-03-23T09:20:06;97922.94;;;15.84;50.02
55066;BME280;40964;42.114;24.220;2023-03-23T09:22:44;97922.88;;;16.01;50.33
55066;BME280;40964;42.114;24.220;2023-03-23T09:25:13;97911.38;;;16.17;48.61
55066;BME280;40964;42.114;24.220;2023-03-23T09:27:40;97922.00;;;16.44;50.23
55066;BME280;40964;42.114;24.220;2023-03-23T09:30:08;97917.03;;;16.53;47.96
55066;BME280;40964;42.114;24.220;2023-03-23T09:32:36;97909.59;;;16.23;50.01
55066;BME280;40964;42.114;24.220;2023-03-23T09:35:03;97906.19;;;16.27;52.42
55066;BME280;40964;42.114;24.220;2023-03-23T09:37:30;97911.28;;;16.34;53.08
55066;BME280;40964;42.114;24.220;2023-03-23T09:39:55;97898.69;;;16.19;48.39
55066;BME280;40964;42.114;24.220;2023-03-23T09:45:21;97906.19;;;16.27;48.71
55066;BME280;40964;42.114;24.220;2023-03-23T09:50:41;97896.50;;;16.70;48.13
55066;BME280;40964;42.114;24.220;2023-03-23T09:53:15;97885.56;;;16.93;50.30
55066;BME280;40964;42.114;24.220;2023-03-23T09:55:42;97892.09;;;16.81;50.77
55066;BME280;40964;42.114;24.220;2023-03-23T09:58:26;97896.72;;;16.95;47.63
55066;BME280;40964;42.114;24.220;2023-03-23T10:01:31;97897.41;;;17.18;49.23
55066;BME280;40964;42.114;24.220;2023-03-23T10:04:32;97899.34;;;17.33;47.22
55066;BME280;40964;42.114;24.220;2023-03-23T10:07:03;97899.09;;;17.34;46.76
55066;BME280;40964;42.114;24.220;2023-03-23T10:09:31;97889.41;;;17.13;48.02
55066;BME280;40964;42.114;24.220;2023-03-23T10:12:10;97898.81;;;17.30;45.47
55066;BME280;40964;42.114;24.220;2023-03-23T10:15:10;97887.03;;;17.69;46.37
55066;BME280;40964;42.114;24.220;2023-03-23T10:18:03;97888.69;;;17.75;46.83
55066;BME280;40964;42.114;24.220;2023-03-23T10:20:48;97882.75;;;17.57;44.83
55066;BME280;40964;42.114;24.220;2023-03-23T10:28:57;97881.31;;;17.40;45.40
55066;BME280;40964;42.114;24.220;2023-03-23T10:31:29;97869.47;;;17.63;42.66
55066;BME280;40964;42.114;24.220;2023-03-23T10:33:58;97872.19;;;17.73;46.13
55066;BME280;40964;42.114;24.220;2023-03-23T10:36:38;97864.88;;;18.10;43.79
55066;BME280;40964;42.114;24.220;2023-03-23T10:39:19;97871.50;;;18.03;46.15
55066;BME280;40964;42.114;24.220;2023-03-23T10:41:45;97865.91;;;17.99;43.00
55066;BME280;40964;42.114;24.220;2023-03-23T10:44:20;97859.84;;;18.34;43.56
55066;BME280;40964;42.114;24.220;2023-03-23T10:47:03;97853.75;;;18.44;43.25
55066;BME280;40964;42.114;24.220;2023-03-23T10:49:45;97853.47;;;18.35;44.93
55066;BME280;40964;42.114;24.220;2023-03-23T10:52:36;97850.47;;;18.01;44.46
55066;BME280;40964;42.114;24.220;2023-03-23T10:55:18;97843.78;;;17.94;42.13
55066;BME280;40964;42.114;24.220;2023-03-23T10:57:46;97845.97;;;18.07;44.78
55066;BME280;40964;42.114;24.220;2023-03-23T11:00:22;97848.16;;;17.57;45.63
55066;BME280;40964;42.114;24.220;2023-03-23T11:03:05;97848.16;;;17.05;46.57
55066;BME280;40964;42.114;24.220;2023-03-23T11:05:56;97852.66;;;17.05;45.18
55066;BME280;40964;42.114;24.220;2023-03-23T11:08:27;97851.69;;;16.79;46.63
55066;BME280;40964;42.114;24.220;2023-03-23T11:11:26;97854.72;;;16.92;47.67
55066;BME280;40964;42.114;24.220;2023-03-23T11:13:58;97846.22;;;17.43;46.49
55066;BME280;40964;42.114;24.220;2023-03-23T11:16:25;97846.75;;;17.40;44.46
55066;BME280;40964;42.114;24.220;2023-03-23T11:18:53;97844.16;;;17.02;44.05
55066;BME280;40964;42.114;24.220;2023-03-23T11:21:21;97837.38;;;17.22;46.85
55066;BME280;40964;42.114;24.220;2023-03-23T11:23:57;97848.09;;;16.95;44.19
55066;BME280;40964;42.114;24.220;2023-03-23T11:26:34;97844.19;;;16.70;46.56
55066;BME280;40964;42.114;24.220;2023-03-23T11:31:32;97837.88;;;16.77;48.41
55066;BME280;40964;42.114;24.220;2023-03-23T11:34:15;97836.88;;;16.88;46.10
55066;BME280;40964;42.114;24.220;2023-03-23T11:36:47;97832.25;;;17.10;43.71
55066;BME280;40964;42.114;24.220;2023-03-23T11:41:52;97827.13;;;17.46;43.62
55066;BME280;40964;42.114;24.220;2023-03-23T11:44:21;97827.63;;;17.43;44.47
55066;BME280;40964;42.114;24.220;2023-03-23T11:49:30;97821.72;;;17.93;44.43
55066;BME280;40964;42.114;24.220;2023-03-23T11:55:26;97817.41;;;17.77;42.36
55066;BME280;40964;42.114;24.220;2023-03-23T11:57:55;97800.97;;;18.05;43.62
55066;BME280;40964;42.114;24.220;2023-03-23T12:00:22;97811.41;;;18.42;45.32
55066;BME280;40964;42.114;24.220;2023-03-23T12:03:07;97810.06;;;18.25;46.67
55066;BME280;40964;42.114;24.220;2023-03-23T12:05:47;97808.69;;;18.02;43.65
55066;BME280;40964;42.114;24.220;2023-03-23T12:35:32;97798.31;;;18.92;41.58
55066;BME280;40964;42.114;24.220;2023-03-23T12:43:48;97791.69;;;18.33;41.93
55066;BME280;40964;42.114;24.220;2023-03-23T12:51:46;97787.69;;;18.15;43.95
55066;BME280;40964;42.114;24.220;2023-03-23T12:57:16;97782.38;;;18.15;45.92
55066;BME280;40964;42.114;24.220;2023-03-23T13:03:05;97781.78;;;17.83;44.36
55066;BME280;40964;42.114;24.220;2023-03-23T13:05:51;97782.50;;;17.68;45.51
55066;BME280;40964;42.114;24.220;2023-03-23T13:08:29;97776.06;;;17.49;45.39
55066;BME280;40964;42.114;24.220;2023-03-23T13:11:02;97781.38;;;17.49;45.47
55066;BME280;40964;42.114;24.220;2023-03-23T13:13:48;97777.97;;;17.58;46.46
55066;BME280;40964;42.114;24.220;2023-03-23T13:16:43;97779.41;;;17.92;47.73
55066;BME280;40964;42.114;24.220;2023-03-23T13:19:22;97780.34;;;17.60;46.05
55066;BME280;40964;42.114;24.220;2023-03-23T13:22:02;97768.50;;;17.15;45.04
55066;BME280;40964;42.114;24.220;2023-03-23T13:24:32;97784.06;;;16.91;45.00
55066;BME280;40964;42.114;24.220;2023-03-23T13:29:47;97787.13;;;16.73;46.75
55066;BME280;40964;42.114;24.220;2023-03-23T13:32:18;97786.19;;;16.94;44.80
55066;BME280;40964;42.114;24.220;2023-03-23T13:34:46;97789.44;;;17.07;46.12
55066;BME280;40964;42.114;24.220;2023-03-23T13:44:55;97784.81;;;16.82;45.34
55066;BME280;40964;42.114;24.220;2023-03-23T13:52:52;97797.19;;;16.71;45.47
55066;BME280;40964;42.114;24.220;2023-03-23T14:05:32;97782.94;;;17.35;45.78
55066;BME280;40964;42.114;24.220;2023-03-23T14:10:39;97782.59;;;17.21;45.70
55066;BME280;40964;42.114;24.220;2023-03-23T14:13:15;97758.63;;;17.06;46.73
55066;BME280;40964;42.114;24.220;2023-03-23T14:15:44;97775.16;;;17.23;47.32
55066;BME280;40964;42.114;24.220;2023-03-23T14:18:15;97780.47;;;17.18;46.74
55066;BME280;40964;42.114;24.220;2023-03-23T14:20:42;97782.03;;;17.14;45.91
55066;BME280;40964;42.114;24.220;2023-03-23T14:23:18;97776.19;;;17.12;45.92
55066;BME280;40964;42.114;24.220;2023-03-23T14:25:44;97781.50;;;17.12;46.45
55066;BME280;40964;42.114;24.220;2023-03-23T14:28:20;97784.59;;;16.93;46.33
55066;BME280;40964;42.114;24.220;2023-03-23T14:30:50;97769.72;;;16.97;46.33
55066;BME280;40964;42.114;24.220;2023-03-23T14:33:19;97778.50;;;16.98;46.90
55066;BME280;40964;42.114;24.220;2023-03-23T14:35:45;97781.75;;;16.68;47.22
55066;BME280;40964;42.114;24.220;2023-03-23T14:38:20;97783.16;;;16.43;48.20
55066;BME280;40964;42.114;24.220;2023-03-23T14:40:48;97782.44;;;16.53;49.31
55066;BME280;40964;42.114;24.220;2023-03-23T14:43:17;97786.94;;;16.53;49.05
55066;BME280;40964;42.114;24.220;2023-03-23T14:45:45;97789.44;;;16.32;48.76
55066;BME280;40964;42.114;24.220;2023-03-23T14:48:14;97785.03;;;16.11;49.66
55066;BME280;40964;42.114;24.220;2023-03-23T14:51:02;97782.94;;;16.13;50.69
55066;BME280;40964;42.114;24.220;2023-03-23T14:53:37;97781.72;;;15.99;53.69
55066;BME280;40964;42.114;24.220;2023-03-23T14:56:14;97782.50;;;15.94;54.22
55066;BME280;40964;42.114;24.220;2023-03-23T14:58:45;97783.00;;;15.91;54.54
55066;BME280;40964;42.114;24.220;2023-03-23T15:01:13;97768.00;;;15.80;54.23
55066;BME280;40964;42.114;24.220;2023-03-23T15:03:56;97782.75;;;15.93;54.29
55066;BME280;40964;42.114;24.220;2023-03-23T15:06:29;97778.50;;;15.92;54.84
55066;BME280;40964;42.114;24.220;2023-03-23T15:08:59;97782.66;;;15.82;55.83
55066;BME280;40964;42.114;24.220;2023-03-23T15:11:33;97786.47;;;15.70;55.48
55066;BME280;40964;42.114;24.220;2023-03-23T15:14:07;97792.34;;;15.50;56.23